CEY3 weather

Fort Macleod Airport
Fort Macleod, Alberta, Canada

Public forecast

Using degrees Celsius for public forecast. Weather courtesy of forecast.io.

Closest aviation weather report (METAR) to Fort Macleod Airport

Closest report is Lethbridge County Airport, 24.3 nm (45.1 km) E. Retrieved 2020/07/12 09:00 UTC (53 minutes ago):

CYQL 120900Z AUTO 22023G33KT 9SM BKN100 OVC130 23/07 A2982 RMK SLP076 DENSITY ALT 4700FT

Closest aviation forecast (TAF) to Fort Macleod Airport

Closest forecast is Lethbridge County Airport, 24.3 nm (45.1 km) E. Retrieved 2020/07/12 06:39 UTC (3 hours ago):

TAF TAF CYQL 120538Z 1206/1218 18012KT P6SM FEW100 SCT250 FM120900 21012G22KT P6SM SCT100 TEMPO 1209/1213 P6SM -SHRA BKN100 FM121300 24015KT P6SM FEW280 BECMG 1216/1218 28018KT RMK FCST BASED ON AUTO OBS NXT FCST BY 121200Z